Weather History for Blacksburg, VA

Change the Weather History Date:

Sunday, April 7, 2013

  Actual Average Record
Temperature  
Mean Temperature 51 °F 48 °F  
Max Temperature 67 °F 61 °F 82 °F (2010)
Min Temperature 34 °F 36 °F 14 °F (1982)
Degree Days  
Heating Degree Days 14 17  
Month to date heating degree days 162 125  
Since 1 July heating degree days 4921 4899  
Cooling Degree Days 0 0  
Month to date cooling degree days 0 0  
Year to date cooling degree days 0 0  
Growing Degree Days 4 (Base 50)    
Moisture  
Dew Point 41 °F    
Average Humidity 60    
Maximum Humidity 79    
Minimum Humidity 40    
Precipitation  
Precipitation 0.00 in 0.12 in 1.13 in (1956)
Month to date precipitation 0.98 0.81  
Year to date precipitation 13.40 10.34  
Snow  
Snow 0.00 in - - ()
Month to date snowfall 5.4  
Since 1 July snowfall 27.9  
Snow Depth 0.00 in    
Sea Level Pressure  
Sea Level Pressure 30.16 in    
Wind  
Wind Speed 6 mph (South)    
Max Wind Speed 10 mph    
Max Gust Speed 20 mph    
Visibility 10 miles    
Events      
T = Trace of Precipitation, MM = Missing Value Source: NWS Daily Summary

Daily Weather History Graph

Daily Weather History Graph

Search for Another Location

Airport:

Trip Planner

Search our weather history database for the weather conditions in past years. The results will help you decide how hot, cold, wet, or windy it might be!

Date:

Astronomy

Apr. 07, 2013 Rise Set
Actual Time 6:58 AM EDT 7:49 PM EDT
Civil Twilight 6:31 AM EDT 8:16 PM EDT
Nautical Twilight 6:00 AM EDT 8:47 PM EDT
Astronomical Twilight 5:28 AM EDT 9:20 PM EDT
Moon 5:11 AM EDT (4/7) 5:22 PM EDT (4/7)
Length of Visible Light 13h 44m
Length of Day
12h 51m
Waning Crescent, 8% of the Moon is Illuminated
Apr 7
Waning Crescent
Apr 10
New
Apr 18
First Quarter
Apr 25
Full
May 2
Last Quarter

Hourly Weather History & Observations

Time (EDT) Temp. Windchill Dew Point Humidity Pressure Visibility Wind Dir Wind Speed Gust Speed Precip Events Conditions
12:15 AM 51.8 °F - 30.2 °F 44% 30.21 in 10.0 mi SE 8.1 mph - N/A   Clear
12:35 AM 51.8 °F - 30.2 °F 44% 30.21 in 10.0 mi SE 11.5 mph 16.1 mph N/A   Clear
12:55 AM 51.8 °F - 32.0 °F 47% 30.21 in 10.0 mi SE 8.1 mph - N/A   Clear
1:15 AM 50.0 °F - 32.0 °F 50% 30.21 in 10.0 mi SE 5.8 mph - N/A   Clear
1:35 AM 50.0 °F - 32.0 °F 50% 30.21 in 10.0 mi ESE 4.6 mph - N/A   Clear
1:55 AM 46.4 °F - 32.0 °F 57% 30.21 in 10.0 mi Calm Calm - N/A   Clear
2:15 AM 46.4 °F 45.2 °F 32.0 °F 57% 30.20 in 10.0 mi ESE 3.5 mph - N/A   Clear
2:35 AM 44.6 °F - 32.0 °F 61% 30.20 in 10.0 mi Calm Calm - N/A   Clear
2:55 AM 44.6 °F - 32.0 °F 61% 30.21 in 10.0 mi Calm Calm - N/A   Clear
3:15 AM 44.6 °F 42.2 °F 32.0 °F 61% 30.21 in 10.0 mi SE 4.6 mph - N/A   Clear
3:35 AM 44.6 °F 43.1 °F 33.8 °F 66% 30.20 in 10.0 mi SE 3.5 mph - N/A   Clear
3:55 AM 46.4 °F 45.2 °F 33.8 °F 62% 30.19 in 10.0 mi SSE 3.5 mph - N/A   Clear
4:15 AM 44.6 °F 43.1 °F 33.8 °F 66% 30.19 in 10.0 mi SE 3.5 mph - N/A   Clear
4:35 AM 41.0 °F 38.0 °F 33.8 °F 76% 30.19 in 10.0 mi East 4.6 mph - N/A   Clear
4:55 AM 42.8 °F 41.1 °F 33.8 °F 70% 30.19 in 10.0 mi East 3.5 mph - N/A   Clear
5:15 AM 41.0 °F 39.0 °F 33.8 °F 76% 30.19 in 10.0 mi East 3.5 mph - N/A   Clear
5:35 AM 39.2 °F - 33.8 °F 81% 30.19 in 10.0 mi Calm Calm - N/A   Clear
5:55 AM 39.2 °F 35.0 °F 33.8 °F 81% 30.19 in 10.0 mi East 5.8 mph - N/A   Clear
6:15 AM 39.2 °F 35.0 °F 33.8 °F 81% 30.19 in 10.0 mi ESE 5.8 mph - N/A   Clear
6:35 AM 39.2 °F 35.9 °F 33.8 °F 81% 30.19 in 10.0 mi ESE 4.6 mph - N/A   Clear
6:55 AM 39.2 °F 35.0 °F 33.8 °F 81% 30.19 in 10.0 mi ESE 5.8 mph - N/A   Clear
7:15 AM 41.0 °F 38.0 °F 35.6 °F 81% 30.20 in 10.0 mi East 4.6 mph - N/A   Clear
7:35 AM 42.8 °F 40.1 °F 35.6 °F 76% 30.21 in 10.0 mi ESE 4.6 mph - N/A   Clear
7:55 AM 44.6 °F 41.4 °F 35.6 °F 71% 30.21 in 10.0 mi ESE 5.8 mph - N/A   Clear
8:15 AM 44.6 °F 40.7 °F 37.4 °F 76% 30.22 in 10.0 mi ESE 6.9 mph - N/A   Clear
8:35 AM 46.4 °F 43.5 °F 37.4 °F 71% 30.22 in 10.0 mi ESE 5.8 mph - N/A   Clear
8:55 AM 46.4 °F 45.2 °F 37.4 °F 71% 30.21 in 10.0 mi ESE 3.5 mph - N/A   Clear
9:15 AM 48.2 °F - 39.2 °F 71% 30.21 in 10.0 mi East 3.5 mph - N/A   Clear
9:35 AM 51.8 °F - 39.2 °F 62% 30.21 in 10.0 mi SSE 3.5 mph - N/A   Clear
9:55 AM 53.6 °F - 42.8 °F 67% 30.21 in 10.0 mi South 4.6 mph - N/A   Clear
10:15 AM 55.4 °F - 42.8 °F 63% 30.20 in 10.0 mi South 3.5 mph - N/A   Clear
10:35 AM 57.2 °F - 42.8 °F 59% 30.20 in 10.0 mi SSW 3.5 mph - N/A   Clear
10:55 AM 57.2 °F - 42.8 °F 59% 30.20 in 10.0 mi South 5.8 mph - N/A   Clear
11:15 AM 59.0 °F - 44.6 °F 59% 30.20 in 10.0 mi South 5.8 mph - N/A   Clear
11:55 AM 60.8 °F - 42.8 °F 52% 30.19 in 10.0 mi SSW 3.5 mph - N/A   Clear
12:15 PM 62.6 °F - 44.6 °F 52% 30.19 in 10.0 mi South 6.9 mph - N/A   Clear
12:35 PM 62.6 °F - 44.6 °F 52% 30.18 in 10.0 mi South 5.8 mph - N/A   Clear
12:55 PM 64.4 °F - 44.6 °F 49% 30.17 in 10.0 mi South 8.1 mph - N/A   Clear
1:15 PM 66.2 °F - 44.6 °F 46% 30.15 in 10.0 mi SSW 11.5 mph 20.7 mph N/A   Clear
1:35 PM 66.2 °F - 44.6 °F 46% 30.14 in 10.0 mi SW 6.9 mph 19.6 mph N/A   Clear
1:55 PM 68.0 °F - 44.6 °F 43% 30.13 in 10.0 mi SW 10.4 mph 19.6 mph N/A   Clear
2:15 PM 68.0 °F - 44.6 °F 43% 30.12 in 10.0 mi WSW 4.6 mph 17.3 mph N/A   Clear
2:35 PM 68.0 °F - 44.6 °F 43% 30.12 in 10.0 mi SW 11.5 mph 18.4 mph N/A   Clear
2:55 PM 68.0 °F - 44.6 °F 43% 30.11 in 10.0 mi SW 6.9 mph 17.3 mph N/A   Clear
3:15 PM 68.0 °F - 46.4 °F 46% 30.10 in 10.0 mi SSW 8.1 mph 16.1 mph N/A   Clear
3:35 PM 68.0 °F - 46.4 °F 46% 30.10 in 10.0 mi SSW 9.2 mph 16.1 mph N/A   Clear
3:55 PM 69.8 °F - 44.6 °F 40% 30.09 in 10.0 mi SW 9.2 mph - N/A   Clear
4:15 PM 68.0 °F - 46.4 °F 46% 30.09 in 10.0 mi South 10.4 mph 17.3 mph N/A   Clear
4:35 PM 68.0 °F - 46.4 °F 46% 30.08 in 10.0 mi South 9.2 mph - N/A   Clear
4:55 PM 69.8 °F - 44.6 °F 40% 30.08 in 10.0 mi SW 9.2 mph - N/A   Clear
5:15 PM 69.8 °F - 46.4 °F 43% 30.08 in 10.0 mi SSW 11.5 mph 17.3 mph N/A   Scattered Clouds
5:35 PM 68.0 °F - 46.4 °F 46% 30.08 in 10.0 mi South 9.2 mph 17.3 mph N/A   Clear
5:55 PM 68.0 °F - 46.4 °F 46% 30.09 in 10.0 mi South 5.8 mph 16.1 mph N/A   Clear
6:15 PM 68.0 °F - 46.4 °F 46% 30.10 in 10.0 mi SSW 11.5 mph 18.4 mph N/A   Clear
6:35 PM 66.2 °F - 46.4 °F 49% 30.10 in 10.0 mi SSW 9.2 mph 19.6 mph N/A   Clear
6:55 PM 66.2 °F - 46.4 °F 49% 30.10 in 10.0 mi SSW 10.4 mph - N/A   Clear
7:15 PM 64.4 °F - 46.4 °F 52% 30.10 in 10.0 mi South 9.2 mph 17.3 mph N/A   Clear
7:35 PM 64.4 °F - 46.4 °F 52% 30.10 in 10.0 mi SSW 4.6 mph - N/A   Clear
7:55 PM 62.6 °F - 46.4 °F 55% 30.10 in 10.0 mi SSW 9.2 mph - N/A   Clear
8:15 PM 62.6 °F - 46.4 °F 55% 30.11 in 10.0 mi SSW 6.9 mph - N/A   Clear
8:35 PM 60.8 °F - 46.4 °F 59% 30.12 in 10.0 mi SSW 5.8 mph - N/A   Clear
8:55 PM 60.8 °F - 46.4 °F 59% 30.12 in 10.0 mi SW 4.6 mph - N/A   Clear
9:15 PM 60.8 °F - 46.4 °F 59% 30.12 in 10.0 mi SSW 3.5 mph - N/A   Clear
9:35 PM 60.8 °F - 46.4 °F 59% 30.13 in 10.0 mi SSW 4.6 mph - N/A   Clear
9:55 PM 59.0 °F - 46.4 °F 63% 30.13 in 10.0 mi SSW 3.5 mph - N/A   Clear
10:15 PM 59.0 °F - 46.4 °F 63% 30.14 in 10.0 mi Calm Calm - N/A   Clear
10:35 PM 57.2 °F - 46.4 °F 67% 30.14 in 10.0 mi SW 3.5 mph - N/A   Clear
10:55 PM 57.2 °F - 46.4 °F 67% 30.14 in 10.0 mi SW 3.5 mph - N/A   Clear
11:15 PM 57.2 °F - 46.4 °F 67% 30.14 in 10.0 mi SW 3.5 mph - N/A   Clear
11:35 PM 57.2 °F - 46.4 °F 67% 30.13 in 10.0 mi Calm Calm - N/A   Clear
11:55 PM 57.2 °F - 46.4 °F 67% 30.14 in 10.0 mi West 3.5 mph - N/A   Clear